sensor_id;sensor_type;location;lat;lon;timestamp;P1;durP1;ratioP1;P2;durP2;ratioP2
16731;SDS011;8484;50.904;9.192;2024-02-26T00:01:04;2.87;;;1.80;;
16731;SDS011;8484;50.904;9.192;2024-02-26T00:03:31;2.13;;;1.70;;
16731;SDS011;8484;50.904;9.192;2024-02-26T00:06:00;3.57;;;1.90;;
16731;SDS011;8484;50.904;9.192;2024-02-26T00:08:27;2.43;;;1.80;;
16731;SDS011;8484;50.904;9.192;2024-02-26T00:10:54;2.30;;;1.90;;
16731;SDS011;8484;50.904;9.192;2024-02-26T00:13:21;2.23;;;2.00;;
16731;SDS011;8484;50.904;9.192;2024-02-26T00:15:49;2.63;;;1.90;;
16731;SDS011;8484;50.904;9.192;2024-02-26T00:18:16;2.20;;;1.80;;
16731;SDS011;8484;50.904;9.192;2024-02-26T00:20:43;2.20;;;1.67;;
16731;SDS011;8484;50.904;9.192;2024-02-26T00:23:10;2.03;;;1.83;;
16731;SDS011;8484;50.904;9.192;2024-02-26T00:25:37;2.43;;;2.03;;
16731;SDS011;8484;50.904;9.192;2024-02-26T00:28:04;2.33;;;2.00;;
16731;SDS011;8484;50.904;9.192;2024-02-26T00:30:31;1.90;;;1.80;;
16731;SDS011;8484;50.904;9.192;2024-02-26T00:32:59;2.00;;;1.80;;
16731;SDS011;8484;50.904;9.192;2024-02-26T00:35:26;1.93;;;1.60;;
16731;SDS011;8484;50.904;9.192;2024-02-26T00:37:53;2.10;;;1.83;;
16731;SDS011;8484;50.904;9.192;2024-02-26T00:40:19;1.53;;;1.43;;
16731;SDS011;8484;50.904;9.192;2024-02-26T00:42:46;2.20;;;1.80;;
16731;SDS011;8484;50.904;9.192;2024-02-26T00:45:13;1.90;;;1.70;;
16731;SDS011;8484;50.904;9.192;2024-02-26T00:47:41;2.10;;;1.90;;
16731;SDS011;8484;50.904;9.192;2024-02-26T00:50:11;2.43;;;1.87;;
16731;SDS011;8484;50.904;9.192;2024-02-26T00:52:38;2.00;;;1.80;;
16731;SDS011;8484;50.904;9.192;2024-02-26T00:55:05;1.97;;;1.77;;
16731;SDS011;8484;50.904;9.192;2024-02-26T00:57:33;1.77;;;1.67;;
16731;SDS011;8484;50.904;9.192;2024-02-26T01:00:00;2.30;;;1.70;;
16731;SDS011;8484;50.904;9.192;2024-02-26T01:02:27;2.37;;;1.73;;
16731;SDS011;8484;50.904;9.192;2024-02-26T01:04:54;1.60;;;1.50;;
16731;SDS011;8484;50.904;9.192;2024-02-26T01:07:22;1.97;;;1.80;;
16731;SDS011;8484;50.904;9.192;2024-02-26T01:09:49;2.60;;;1.67;;
16731;SDS011;8484;50.904;9.192;2024-02-26T01:12:16;2.13;;;1.70;;
16731;SDS011;8484;50.904;9.192;2024-02-26T01:14:42;1.90;;;1.77;;
16731;SDS011;8484;50.904;9.192;2024-02-26T01:17:09;1.73;;;1.63;;
16731;SDS011;8484;50.904;9.192;2024-02-26T01:19:36;2.50;;;1.90;;
16731;SDS011;8484;50.904;9.192;2024-02-26T01:22:03;2.00;;;1.60;;
16731;SDS011;8484;50.904;9.192;2024-02-26T01:24:31;3.13;;;1.60;;
16731;SDS011;8484;50.904;9.192;2024-02-26T01:26:58;2.00;;;1.73;;
16731;SDS011;8484;50.904;9.192;2024-02-26T01:29:25;2.30;;;1.60;;
16731;SDS011;8484;50.904;9.192;2024-02-26T01:31:51;2.00;;;1.73;;
16731;SDS011;8484;50.904;9.192;2024-02-26T01:34:18;1.80;;;1.70;;
16731;SDS011;8484;50.904;9.192;2024-02-26T01:36:45;1.77;;;1.60;;
16731;SDS011;8484;50.904;9.192;2024-02-26T01:39:12;2.00;;;1.80;;
16731;SDS011;8484;50.904;9.192;2024-02-26T01:41:40;3.17;;;1.50;;
16731;SDS011;8484;50.904;9.192;2024-02-26T01:44:07;2.40;;;1.80;;
16731;SDS011;8484;50.904;9.192;2024-02-26T01:46:34;4.30;;;1.70;;
16731;SDS011;8484;50.904;9.192;2024-02-26T01:49:02;1.70;;;1.60;;
16731;SDS011;8484;50.904;9.192;2024-02-26T01:51:29;2.00;;;1.60;;
16731;SDS011;8484;50.904;9.192;2024-02-26T01:53:58;1.60;;;1.50;;
16731;SDS011;8484;50.904;9.192;2024-02-26T01:56:26;1.70;;;1.60;;
16731;SDS011;8484;50.904;9.192;2024-02-26T01:58:56;1.53;;;1.43;;
16731;SDS011;8484;50.904;9.192;2024-02-26T02:01:24;2.77;;;1.63;;
16731;SDS011;8484;50.904;9.192;2024-02-26T02:03:53;2.33;;;1.40;;
16731;SDS011;8484;50.904;9.192;2024-02-26T02:06:20;1.40;;;1.30;;
16731;SDS011;8484;50.904;9.192;2024-02-26T02:08:47;1.47;;;1.37;;
16731;SDS011;8484;50.904;9.192;2024-02-26T02:11:14;1.30;;;1.20;;
16731;SDS011;8484;50.904;9.192;2024-02-26T02:13:42;2.63;;;1.30;;
16731;SDS011;8484;50.904;9.192;2024-02-26T02:16:10;1.43;;;1.27;;
16731;SDS011;8484;50.904;9.192;2024-02-26T02:18:37;1.30;;;1.20;;
16731;SDS011;8484;50.904;9.192;2024-02-26T02:21:06;1.70;;;1.30;;
16731;SDS011;8484;50.904;9.192;2024-02-26T02:23:32;1.10;;;1.00;;
16731;SDS011;8484;50.904;9.192;2024-02-26T02:26:00;1.63;;;1.10;;
16731;SDS011;8484;50.904;9.192;2024-02-26T02:28:27;1.57;;;1.37;;
16731;SDS011;8484;50.904;9.192;2024-02-26T02:30:54;1.53;;;1.23;;
16731;SDS011;8484;50.904;9.192;2024-02-26T02:33:21;1.73;;;1.00;;
16731;SDS011;8484;50.904;9.192;2024-02-26T02:35:49;1.70;;;1.50;;
16731;SDS011;8484;50.904;9.192;2024-02-26T02:38:20;1.20;;;1.10;;
16731;SDS011;8484;50.904;9.192;2024-02-26T02:40:48;1.47;;;1.30;;
16731;SDS011;8484;50.904;9.192;2024-02-26T02:43:15;1.30;;;1.20;;
16731;SDS011;8484;50.904;9.192;2024-02-26T02:45:42;1.30;;;1.20;;
16731;SDS011;8484;50.904;9.192;2024-02-26T02:48:10;2.10;;;1.20;;
16731;SDS011;8484;50.904;9.192;2024-02-26T02:50:37;1.33;;;1.20;;
16731;SDS011;8484;50.904;9.192;2024-02-26T02:53:04;1.80;;;1.50;;
16731;SDS011;8484;50.904;9.192;2024-02-26T02:55:32;1.20;;;1.10;;
16731;SDS011;8484;50.904;9.192;2024-02-26T02:57:59;1.40;;;1.23;;
16731;SDS011;8484;50.904;9.192;2024-02-26T03:00:26;1.40;;;1.30;;
16731;SDS011;8484;50.904;9.192;2024-02-26T03:02:53;1.20;;;1.10;;
16731;SDS011;8484;50.904;9.192;2024-02-26T03:05:20;2.87;;;1.40;;
16731;SDS011;8484;50.904;9.192;2024-02-26T03:07:47;1.60;;;1.40;;
16731;SDS011;8484;50.904;9.192;2024-02-26T03:10:13;2.37;;;1.30;;
16731;SDS011;8484;50.904;9.192;2024-02-26T03:12:41;2.97;;;1.40;;
16731;SDS011;8484;50.904;9.192;2024-02-26T03:15:08;1.43;;;1.33;;
16731;SDS011;8484;50.904;9.192;2024-02-26T03:17:36;1.40;;;1.23;;
16731;SDS011;8484;50.904;9.192;2024-02-26T03:20:04;1.67;;;1.50;;
16731;SDS011;8484;50.904;9.192;2024-02-26T03:22:33;1.73;;;1.53;;
16731;SDS011;8484;50.904;9.192;2024-02-26T03:25:00;1.50;;;1.40;;
16731;SDS011;8484;50.904;9.192;2024-02-26T03:27:27;1.20;;;1.10;;
16731;SDS011;8484;50.904;9.192;2024-02-26T03:29:55;1.70;;;1.10;;
16731;SDS011;8484;50.904;9.192;2024-02-26T03:32:22;1.63;;;1.30;;
16731;SDS011;8484;50.904;9.192;2024-02-26T03:34:49;1.60;;;1.30;;
16731;SDS011;8484;50.904;9.192;2024-02-26T03:37:19;1.17;;;1.07;;
16731;SDS011;8484;50.904;9.192;2024-02-26T03:39:46;1.53;;;1.10;;
16731;SDS011;8484;50.904;9.192;2024-02-26T03:42:12;2.10;;;1.23;;
16731;SDS011;8484;50.904;9.192;2024-02-26T03:44:41;1.10;;;1.00;;
16731;SDS011;8484;50.904;9.192;2024-02-26T03:47:09;2.20;;;1.17;;
16731;SDS011;8484;50.904;9.192;2024-02-26T03:49:36;1.20;;;1.10;;
16731;SDS011;8484;50.904;9.192;2024-02-26T03:52:03;1.13;;;1.00;;
16731;SDS011;8484;50.904;9.192;2024-02-26T03:54:30;1.30;;;1.10;;
16731;SDS011;8484;50.904;9.192;2024-02-26T03:56:57;1.30;;;1.20;;
16731;SDS011;8484;50.904;9.192;2024-02-26T03:59:24;1.33;;;1.23;;
16731;SDS011;8484;50.904;9.192;2024-02-26T04:01:51;1.87;;;1.50;;
16731;SDS011;8484;50.904;9.192;2024-02-26T04:04:19;1.40;;;1.30;;
16731;SDS011;8484;50.904;9.192;2024-02-26T04:06:46;1.43;;;1.33;;
16731;SDS011;8484;50.904;9.192;2024-02-26T04:09:13;2.33;;;1.60;;
16731;SDS011;8484;50.904;9.192;2024-02-26T04:11:40;1.30;;;1.20;;
16731;SDS011;8484;50.904;9.192;2024-02-26T04:14:08;1.47;;;1.20;;
16731;SDS011;8484;50.904;9.192;2024-02-26T04:16:37;1.70;;;1.40;;
16731;SDS011;8484;50.904;9.192;2024-02-26T04:19:04;1.83;;;1.00;;
16731;SDS011;8484;50.904;9.192;2024-02-26T04:21:33;2.30;;;1.37;;
16731;SDS011;8484;50.904;9.192;2024-02-26T04:24:00;1.17;;;1.07;;
16731;SDS011;8484;50.904;9.192;2024-02-26T04:26:27;1.63;;;1.20;;
16731;SDS011;8484;50.904;9.192;2024-02-26T04:28:54;2.37;;;1.30;;
16731;SDS011;8484;50.904;9.192;2024-02-26T04:31:21;1.20;;;1.10;;
16731;SDS011;8484;50.904;9.192;2024-02-26T04:33:47;1.30;;;1.20;;
16731;SDS011;8484;50.904;9.192;2024-02-26T04:36:14;1.30;;;1.20;;
16731;SDS011;8484;50.904;9.192;2024-02-26T04:38:42;1.13;;;1.03;;
16731;SDS011;8484;50.904;9.192;2024-02-26T04:41:09;1.57;;;1.10;;
16731;SDS011;8484;50.904;9.192;2024-02-26T04:43:37;1.87;;;1.30;;
16731;SDS011;8484;50.904;9.192;2024-02-26T04:46:06;1.23;;;1.13;;
16731;SDS011;8484;50.904;9.192;2024-02-26T04:48:33;1.70;;;1.20;;
16731;SDS011;8484;50.904;9.192;2024-02-26T04:51:00;1.17;;;1.07;;
16731;SDS011;8484;50.904;9.192;2024-02-26T04:53:27;1.57;;;1.47;;
16731;SDS011;8484;50.904;9.192;2024-02-26T04:55:55;1.40;;;1.30;;
16731;SDS011;8484;50.904;9.192;2024-02-26T04:58:22;1.83;;;1.40;;
16731;SDS011;8484;50.904;9.192;2024-02-26T05:00:49;1.70;;;1.20;;
16731;SDS011;8484;50.904;9.192;2024-02-26T05:03:16;2.10;;;1.27;;
16731;SDS011;8484;50.904;9.192;2024-02-26T05:05:43;2.07;;;1.40;;
16731;SDS011;8484;50.904;9.192;2024-02-26T05:08:10;1.70;;;1.50;;
16731;SDS011;8484;50.904;9.192;2024-02-26T05:10:37;1.73;;;1.50;;
16731;SDS011;8484;50.904;9.192;2024-02-26T05:13:07;1.53;;;1.30;;
16731;SDS011;8484;50.904;9.192;2024-02-26T05:15:34;2.43;;;1.43;;
16731;SDS011;8484;50.904;9.192;2024-02-26T05:18:01;1.37;;;1.20;;
16731;SDS011;8484;50.904;9.192;2024-02-26T05:20:28;1.93;;;1.30;;
16731;SDS011;8484;50.904;9.192;2024-02-26T05:22:55;2.37;;;1.47;;
16731;SDS011;8484;50.904;9.192;2024-02-26T05:25:23;1.40;;;1.30;;
16731;SDS011;8484;50.904;9.192;2024-02-26T05:27:50;1.77;;;1.50;;
16731;SDS011;8484;50.904;9.192;2024-02-26T05:30:18;2.10;;;1.50;;
16731;SDS011;8484;50.904;9.192;2024-02-26T05:32:45;1.40;;;1.30;;
16731;SDS011;8484;50.904;9.192;2024-02-26T05:35:12;1.80;;;1.60;;
16731;SDS011;8484;50.904;9.192;2024-02-26T05:37:40;2.77;;;1.40;;
16731;SDS011;8484;50.904;9.192;2024-02-26T05:40:07;1.43;;;1.33;;
16731;SDS011;8484;50.904;9.192;2024-02-26T05:42:34;1.50;;;1.40;;
16731;SDS011;8484;50.904;9.192;2024-02-26T05:45:01;1.60;;;1.50;;
16731;SDS011;8484;50.904;9.192;2024-02-26T05:47:32;1.87;;;1.50;;
16731;SDS011;8484;50.904;9.192;2024-02-26T05:49:59;1.73;;;1.60;;
16731;SDS011;8484;50.904;9.192;2024-02-26T05:52:26;3.00;;;1.53;;
16731;SDS011;8484;50.904;9.192;2024-02-26T05:54:54;2.83;;;1.53;;
16731;SDS011;8484;50.904;9.192;2024-02-26T05:57:21;2.80;;;1.93;;
16731;SDS011;8484;50.904;9.192;2024-02-26T05:59:48;1.97;;;1.77;;
16731;SDS011;8484;50.904;9.192;2024-02-26T06:02:15;1.77;;;1.40;;
16731;SDS011;8484;50.904;9.192;2024-02-26T06:04:43;1.80;;;1.40;;
16731;SDS011;8484;50.904;9.192;2024-02-26T06:07:11;2.40;;;1.50;;
16731;SDS011;8484;50.904;9.192;2024-02-26T06:09:38;1.60;;;1.50;;
16731;SDS011;8484;50.904;9.192;2024-02-26T06:12:06;1.67;;;1.37;;
16731;SDS011;8484;50.904;9.192;2024-02-26T06:14:33;1.73;;;1.57;;
16731;SDS011;8484;50.904;9.192;2024-02-26T06:16:59;1.70;;;1.60;;
16731;SDS011;8484;50.904;9.192;2024-02-26T06:19:26;1.87;;;1.60;;
16731;SDS011;8484;50.904;9.192;2024-02-26T06:21:55;3.90;;;1.70;;
16731;SDS011;8484;50.904;9.192;2024-02-26T06:24:22;2.17;;;1.50;;
16731;SDS011;8484;50.904;9.192;2024-02-26T06:26:48;2.27;;;2.00;;
16731;SDS011;8484;50.904;9.192;2024-02-26T06:29:15;2.00;;;1.80;;
16731;SDS011;8484;50.904;9.192;2024-02-26T06:31:42;3.23;;;1.97;;
16731;SDS011;8484;50.904;9.192;2024-02-26T06:34:09;2.17;;;1.77;;
16731;SDS011;8484;50.904;9.192;2024-02-26T06:36:36;2.23;;;1.87;;
16731;SDS011;8484;50.904;9.192;2024-02-26T06:39:04;2.33;;;2.13;;
16731;SDS011;8484;50.904;9.192;2024-02-26T06:41:31;1.80;;;1.70;;
16731;SDS011;8484;50.904;9.192;2024-02-26T06:43:58;1.80;;;1.70;;
16731;SDS011;8484;50.904;9.192;2024-02-26T06:46:25;2.30;;;1.77;;
16731;SDS011;8484;50.904;9.192;2024-02-26T06:48:53;2.40;;;2.00;;
16731;SDS011;8484;50.904;9.192;2024-02-26T06:51:20;2.37;;;1.80;;
16731;SDS011;8484;50.904;9.192;2024-02-26T06:53:47;2.37;;;1.83;;
16731;SDS011;8484;50.904;9.192;2024-02-26T06:56:16;2.60;;;2.00;;
16731;SDS011;8484;50.904;9.192;2024-02-26T06:58:43;2.60;;;1.90;;
16731;SDS011;8484;50.904;9.192;2024-02-26T07:01:09;2.47;;;1.80;;
16731;SDS011;8484;50.904;9.192;2024-02-26T07:03:39;2.13;;;1.90;;
16731;SDS011;8484;50.904;9.192;2024-02-26T07:06:06;2.17;;;1.97;;
16731;SDS011;8484;50.904;9.192;2024-02-26T07:08:34;2.73;;;2.10;;
16731;SDS011;8484;50.904;9.192;2024-02-26T07:11:01;4.33;;;2.30;;
16731;SDS011;8484;50.904;9.192;2024-02-26T07:13:29;3.40;;;2.20;;
16731;SDS011;8484;50.904;9.192;2024-02-26T07:15:56;2.70;;;1.90;;
16731;SDS011;8484;50.904;9.192;2024-02-26T07:18:22;2.83;;;2.17;;
16731;SDS011;8484;50.904;9.192;2024-02-26T07:20:49;3.93;;;1.90;;
16731;SDS011;8484;50.904;9.192;2024-02-26T07:23:16;2.73;;;1.77;;
16731;SDS011;8484;50.904;9.192;2024-02-26T07:25:43;3.30;;;1.87;;
16731;SDS011;8484;50.904;9.192;2024-02-26T07:28:12;2.27;;;1.60;;
16731;SDS011;8484;50.904;9.192;2024-02-26T07:30:40;2.20;;;1.83;;
16731;SDS011;8484;50.904;9.192;2024-02-26T07:33:07;3.43;;;1.90;;
16731;SDS011;8484;50.904;9.192;2024-02-26T07:35:33;2.67;;;1.97;;
16731;SDS011;8484;50.904;9.192;2024-02-26T07:38:01;2.43;;;1.97;;
16731;SDS011;8484;50.904;9.192;2024-02-26T07:40:27;2.93;;;2.10;;
16731;SDS011;8484;50.904;9.192;2024-02-26T07:42:54;3.63;;;2.30;;
16731;SDS011;8484;50.904;9.192;2024-02-26T07:45:21;2.73;;;2.30;;
16731;SDS011;8484;50.904;9.192;2024-02-26T07:47:49;2.23;;;2.03;;
16731;SDS011;8484;50.904;9.192;2024-02-26T07:50:16;3.43;;;2.30;;
16731;SDS011;8484;50.904;9.192;2024-02-26T07:52:44;4.23;;;2.30;;
16731;SDS011;8484;50.904;9.192;2024-02-26T07:55:11;2.20;;;2.00;;
16731;SDS011;8484;50.904;9.192;2024-02-26T07:57:41;2.47;;;2.00;;
16731;SDS011;8484;50.904;9.192;2024-02-26T08:00:08;2.27;;;2.00;;
16731;SDS011;8484;50.904;9.192;2024-02-26T08:02:36;2.70;;;2.30;;
16731;SDS011;8484;50.904;9.192;2024-02-26T08:05:04;2.53;;;2.10;;
16731;SDS011;8484;50.904;9.192;2024-02-26T08:07:32;4.60;;;2.40;;
16731;SDS011;8484;50.904;9.192;2024-02-26T08:09:59;5.53;;;2.30;;
16731;SDS011;8484;50.904;9.192;2024-02-26T08:12:25;3.73;;;2.50;;
16731;SDS011;8484;50.904;9.192;2024-02-26T08:14:52;4.00;;;2.30;;
16731;SDS011;8484;50.904;9.192;2024-02-26T08:17:19;2.17;;;1.97;;
16731;SDS011;8484;50.904;9.192;2024-02-26T08:19:46;2.90;;;2.20;;
16731;SDS011;8484;50.904;9.192;2024-02-26T08:22:14;2.80;;;2.43;;
16731;SDS011;8484;50.904;9.192;2024-02-26T08:24:42;3.10;;;2.50;;
16731;SDS011;8484;50.904;9.192;2024-02-26T08:27:09;3.47;;;2.67;;
16731;SDS011;8484;50.904;9.192;2024-02-26T08:29:36;2.87;;;2.53;;
16731;SDS011;8484;50.904;9.192;2024-02-26T08:32:03;5.30;;;3.30;;
16731;SDS011;8484;50.904;9.192;2024-02-26T08:34:32;2.43;;;2.23;;
16731;SDS011;8484;50.904;9.192;2024-02-26T08:36:59;4.33;;;2.50;;
16731;SDS011;8484;50.904;9.192;2024-02-26T08:39:27;4.50;;;2.67;;
16731;SDS011;8484;50.904;9.192;2024-02-26T08:41:54;3.00;;;2.70;;
16731;SDS011;8484;50.904;9.192;2024-02-26T08:44:21;3.37;;;2.83;;
16731;SDS011;8484;50.904;9.192;2024-02-26T08:46:47;2.60;;;2.30;;
16731;SDS011;8484;50.904;9.192;2024-02-26T08:49:16;3.53;;;2.83;;
16731;SDS011;8484;50.904;9.192;2024-02-26T08:51:42;2.90;;;2.60;;
16731;SDS011;8484;50.904;9.192;2024-02-26T08:54:10;4.10;;;3.23;;
16731;SDS011;8484;50.904;9.192;2024-02-26T08:56:38;4.10;;;2.87;;
16731;SDS011;8484;50.904;9.192;2024-02-26T08:59:05;4.27;;;3.20;;
16731;SDS011;8484;50.904;9.192;2024-02-26T09:01:32;4.40;;;3.30;;
16731;SDS011;8484;50.904;9.192;2024-02-26T09:03:59;3.63;;;3.00;;
16731;SDS011;8484;50.904;9.192;2024-02-26T09:06:26;4.13;;;3.00;;
16731;SDS011;8484;50.904;9.192;2024-02-26T09:08:54;3.43;;;2.97;;
16731;SDS011;8484;50.904;9.192;2024-02-26T09:11:21;4.87;;;2.90;;
16731;SDS011;8484;50.904;9.192;2024-02-26T09:13:49;4.10;;;3.20;;
16731;SDS011;8484;50.904;9.192;2024-02-26T09:16:16;3.67;;;3.10;;
16731;SDS011;8484;50.904;9.192;2024-02-26T09:18:43;5.63;;;3.10;;
16731;SDS011;8484;50.904;9.192;2024-02-26T09:21:10;4.07;;;3.30;;
16731;SDS011;8484;50.904;9.192;2024-02-26T09:23:37;5.03;;;3.33;;
16731;SDS011;8484;50.904;9.192;2024-02-26T09:26:05;4.20;;;2.93;;
16731;SDS011;8484;50.904;9.192;2024-02-26T09:28:32;5.57;;;3.40;;
16731;SDS011;8484;50.904;9.192;2024-02-26T09:31:03;3.57;;;3.27;;
16731;SDS011;8484;50.904;9.192;2024-02-26T09:33:31;4.07;;;3.17;;
16731;SDS011;8484;50.904;9.192;2024-02-26T09:35:58;4.77;;;3.87;;
16731;SDS011;8484;50.904;9.192;2024-02-26T09:38:25;5.27;;;4.20;;
16731;SDS011;8484;50.904;9.192;2024-02-26T09:40:52;5.13;;;4.00;;
16731;SDS011;8484;50.904;9.192;2024-02-26T09:43:21;6.43;;;4.20;;
16731;SDS011;8484;50.904;9.192;2024-02-26T09:45:49;5.73;;;3.93;;
16731;SDS011;8484;50.904;9.192;2024-02-26T09:48:18;4.67;;;3.50;;
16731;SDS011;8484;50.904;9.192;2024-02-26T09:50:46;4.00;;;3.60;;
16731;SDS011;8484;50.904;9.192;2024-02-26T09:53:13;4.13;;;3.47;;
16731;SDS011;8484;50.904;9.192;2024-02-26T09:55:40;4.20;;;3.37;;
16731;SDS011;8484;50.904;9.192;2024-02-26T09:58:08;3.60;;;3.10;;
16731;SDS011;8484;50.904;9.192;2024-02-26T10:00:43;4.97;;;3.50;;
16731;SDS011;8484;50.904;9.192;2024-02-26T10:03:16;4.17;;;3.63;;
16731;SDS011;8484;50.904;9.192;2024-02-26T10:05:47;4.10;;;3.63;;
16731;SDS011;8484;50.904;9.192;2024-02-26T10:08:18;4.87;;;3.67;;
16731;SDS011;8484;50.904;9.192;2024-02-26T10:10:47;5.23;;;4.10;;
16731;SDS011;8484;50.904;9.192;2024-02-26T10:13:15;4.70;;;3.63;;
16731;SDS011;8484;50.904;9.192;2024-02-26T10:15:42;5.23;;;3.80;;
16731;SDS011;8484;50.904;9.192;2024-02-26T10:18:09;5.07;;;3.83;;
16731;SDS011;8484;50.904;9.192;2024-02-26T10:20:37;4.50;;;3.70;;
16731;SDS011;8484;50.904;9.192;2024-02-26T10:23:05;4.03;;;3.40;;
16731;SDS011;8484;50.904;9.192;2024-02-26T10:25:32;4.67;;;4.10;;
16731;SDS011;8484;50.904;9.192;2024-02-26T10:27:59;5.23;;;4.23;;
16731;SDS011;8484;50.904;9.192;2024-02-26T10:30:28;4.40;;;4.00;;
16731;SDS011;8484;50.904;9.192;2024-02-26T10:32:56;3.80;;;3.40;;
16731;SDS011;8484;50.904;9.192;2024-02-26T10:35:23;4.17;;;3.73;;
16731;SDS011;8484;50.904;9.192;2024-02-26T10:37:52;4.93;;;3.33;;
16731;SDS011;8484;50.904;9.192;2024-02-26T10:40:19;5.40;;;3.90;;
16731;SDS011;8484;50.904;9.192;2024-02-26T10:42:46;3.83;;;3.37;;
16731;SDS011;8484;50.904;9.192;2024-02-26T10:45:12;4.37;;;3.50;;
16731;SDS011;8484;50.904;9.192;2024-02-26T10:47:40;4.53;;;3.00;;
16731;SDS011;8484;50.904;9.192;2024-02-26T10:50:07;4.23;;;3.37;;
16731;SDS011;8484;50.904;9.192;2024-02-26T10:52:34;3.47;;;3.00;;
16731;SDS011;8484;50.904;9.192;2024-02-26T10:55:04;3.20;;;2.90;;
16731;SDS011;8484;50.904;9.192;2024-02-26T10:57:33;3.80;;;3.27;;
16731;SDS011;8484;50.904;9.192;2024-02-26T11:00:04;3.43;;;3.03;;
16731;SDS011;8484;50.904;9.192;2024-02-26T11:02:32;3.13;;;2.83;;
16731;SDS011;8484;50.904;9.192;2024-02-26T11:05:00;4.50;;;2.90;;
16731;SDS011;8484;50.904;9.192;2024-02-26T11:07:28;3.50;;;3.00;;
16731;SDS011;8484;50.904;9.192;2024-02-26T11:09:57;3.60;;;3.07;;
16731;SDS011;8484;50.904;9.192;2024-02-26T11:12:26;4.13;;;2.73;;
16731;SDS011;8484;50.904;9.192;2024-02-26T11:14:55;2.83;;;2.60;;
16731;SDS011;8484;50.904;9.192;2024-02-26T11:17:23;2.97;;;2.67;;
16731;SDS011;8484;50.904;9.192;2024-02-26T11:19:53;2.63;;;2.43;;
16731;SDS011;8484;50.904;9.192;2024-02-26T11:22:23;4.17;;;2.93;;
16731;SDS011;8484;50.904;9.192;2024-02-26T11:24:51;2.80;;;2.50;;
16731;SDS011;8484;50.904;9.192;2024-02-26T11:27:19;3.00;;;2.17;;
16731;SDS011;8484;50.904;9.192;2024-02-26T11:29:52;2.67;;;2.20;;
16731;SDS011;8484;50.904;9.192;2024-02-26T11:32:20;3.27;;;2.70;;
16731;SDS011;8484;50.904;9.192;2024-02-26T11:34:47;3.83;;;2.63;;
16731;SDS011;8484;50.904;9.192;2024-02-26T11:37:15;2.87;;;2.33;;
16731;SDS011;8484;50.904;9.192;2024-02-26T11:39:45;2.40;;;2.10;;
16731;SDS011;8484;50.904;9.192;2024-02-26T11:42:13;2.53;;;2.17;;
16731;SDS011;8484;50.904;9.192;2024-02-26T11:44:41;3.53;;;2.37;;
16731;SDS011;8484;50.904;9.192;2024-02-26T11:47:12;3.77;;;2.53;;
16731;SDS011;8484;50.904;9.192;2024-02-26T11:49:40;4.03;;;2.50;;
16731;SDS011;8484;50.904;9.192;2024-02-26T11:52:07;2.43;;;2.10;;
16731;SDS011;8484;50.904;9.192;2024-02-26T11:54:38;2.83;;;2.53;;
16731;SDS011;8484;50.904;9.192;2024-02-26T11:57:19;2.63;;;2.20;;
16731;SDS011;8484;50.904;9.192;2024-02-26T11:59:47;3.07;;;2.10;;
16731;SDS011;8484;50.904;9.192;2024-02-26T12:05:10;3.13;;;2.43;;
16731;SDS011;8484;50.904;9.192;2024-02-26T12:07:45;2.77;;;2.30;;
16731;SDS011;8484;50.904;9.192;2024-02-26T12:10:13;2.87;;;2.30;;
16731;SDS011;8484;50.904;9.192;2024-02-26T12:12:42;3.73;;;2.60;;
16731;SDS011;8484;50.904;9.192;2024-02-26T12:15:08;2.20;;;1.87;;
16731;SDS011;8484;50.904;9.192;2024-02-26T12:17:37;2.20;;;2.00;;
16731;SDS011;8484;50.904;9.192;2024-02-26T12:20:12;2.13;;;1.80;;
16731;SDS011;8484;50.904;9.192;2024-02-26T12:22:40;2.60;;;2.13;;
16731;SDS011;8484;50.904;9.192;2024-02-26T12:25:08;2.63;;;2.20;;
16731;SDS011;8484;50.904;9.192;2024-02-26T12:27:35;2.73;;;2.03;;
16731;SDS011;8484;50.904;9.192;2024-02-26T12:30:02;2.53;;;2.13;;
16731;SDS011;8484;50.904;9.192;2024-02-26T12:32:29;2.83;;;2.10;;
16731;SDS011;8484;50.904;9.192;2024-02-26T12:34:56;3.43;;;2.50;;
16731;SDS011;8484;50.904;9.192;2024-02-26T12:37:26;4.40;;;2.13;;
16731;SDS011;8484;50.904;9.192;2024-02-26T12:39:53;2.77;;;2.37;;
16731;SDS011;8484;50.904;9.192;2024-02-26T12:42:20;2.27;;;2.07;;
16731;SDS011;8484;50.904;9.192;2024-02-26T12:44:49;3.87;;;2.27;;
16731;SDS011;8484;50.904;9.192;2024-02-26T12:47:16;2.60;;;2.30;;
16731;SDS011;8484;50.904;9.192;2024-02-26T12:49:47;2.87;;;2.30;;
16731;SDS011;8484;50.904;9.192;2024-02-26T12:52:14;3.50;;;2.50;;
16731;SDS011;8484;50.904;9.192;2024-02-26T12:54:43;3.07;;;2.13;;
16731;SDS011;8484;50.904;9.192;2024-02-26T12:57:11;2.47;;;2.10;;
16731;SDS011;8484;50.904;9.192;2024-02-26T12:59:38;2.63;;;2.33;;
16731;SDS011;8484;50.904;9.192;2024-02-26T13:02:05;3.40;;;2.50;;
16731;SDS011;8484;50.904;9.192;2024-02-26T13:04:34;3.10;;;2.30;;
16731;SDS011;8484;50.904;9.192;2024-02-26T13:07:03;2.97;;;2.60;;
16731;SDS011;8484;50.904;9.192;2024-02-26T13:09:32;3.07;;;2.60;;
16731;SDS011;8484;50.904;9.192;2024-02-26T13:12:03;2.67;;;2.47;;
16731;SDS011;8484;50.904;9.192;2024-02-26T13:14:30;3.43;;;3.13;;
16731;SDS011;8484;50.904;9.192;2024-02-26T13:16:59;5.23;;;3.13;;
16731;SDS011;8484;50.904;9.192;2024-02-26T13:19:27;3.43;;;3.07;;
16731;SDS011;8484;50.904;9.192;2024-02-26T13:21:54;7.33;;;3.90;;
16731;SDS011;8484;50.904;9.192;2024-02-26T13:24:21;4.77;;;4.23;;
16731;SDS011;8484;50.904;9.192;2024-02-26T13:26:53;5.20;;;4.33;;
16731;SDS011;8484;50.904;9.192;2024-02-26T13:29:22;5.00;;;4.27;;
16731;SDS011;8484;50.904;9.192;2024-02-26T13:31:53;4.27;;;3.43;;
16731;SDS011;8484;50.904;9.192;2024-02-26T13:34:25;3.90;;;3.60;;
16731;SDS011;8484;50.904;9.192;2024-02-26T13:36:53;5.50;;;4.30;;
16731;SDS011;8484;50.904;9.192;2024-02-26T13:39:23;5.10;;;4.47;;
16731;SDS011;8484;50.904;9.192;2024-02-26T13:41:50;7.83;;;4.43;;
16731;SDS011;8484;50.904;9.192;2024-02-26T13:44:18;5.03;;;4.33;;
16731;SDS011;8484;50.904;9.192;2024-02-26T13:46:47;4.30;;;3.80;;
16731;SDS011;8484;50.904;9.192;2024-02-26T13:49:15;3.90;;;3.37;;
16731;SDS011;8484;50.904;9.192;2024-02-26T13:51:42;3.77;;;3.20;;
16731;SDS011;8484;50.904;9.192;2024-02-26T13:54:09;3.43;;;2.87;;
16731;SDS011;8484;50.904;9.192;2024-02-26T13:56:36;3.63;;;2.80;;
16731;SDS011;8484;50.904;9.192;2024-02-26T13:59:03;4.33;;;3.03;;
16731;SDS011;8484;50.904;9.192;2024-02-26T14:01:31;4.43;;;3.50;;
16731;SDS011;8484;50.904;9.192;2024-02-26T14:04:00;4.90;;;3.73;;
16731;SDS011;8484;50.904;9.192;2024-02-26T14:06:28;6.17;;;3.63;;
16731;SDS011;8484;50.904;9.192;2024-02-26T14:08:57;5.60;;;3.70;;
16731;SDS011;8484;50.904;9.192;2024-02-26T14:11:24;3.63;;;2.67;;
16731;SDS011;8484;50.904;9.192;2024-02-26T14:13:51;7.43;;;6.60;;
16731;SDS011;8484;50.904;9.192;2024-02-26T14:16:18;4.87;;;3.87;;
16731;SDS011;8484;50.904;9.192;2024-02-26T14:18:45;11.57;;;9.40;;
16731;SDS011;8484;50.904;9.192;2024-02-26T14:21:13;15.23;;;11.80;;
16731;SDS011;8484;50.904;9.192;2024-02-26T14:23:40;7.73;;;6.43;;
16731;SDS011;8484;50.904;9.192;2024-02-26T14:26:09;7.07;;;5.70;;
16731;SDS011;8484;50.904;9.192;2024-02-26T14:28:36;11.30;;;5.40;;
16731;SDS011;8484;50.904;9.192;2024-02-26T14:31:03;5.13;;;4.27;;
16731;SDS011;8484;50.904;9.192;2024-02-26T14:33:32;5.13;;;4.20;;
16731;SDS011;8484;50.904;9.192;2024-02-26T14:35:59;11.97;;;8.20;;
16731;SDS011;8484;50.904;9.192;2024-02-26T14:38:27;12.53;;;8.30;;
16731;SDS011;8484;50.904;9.192;2024-02-26T14:40:54;19.90;;;15.40;;
16731;SDS011;8484;50.904;9.192;2024-02-26T14:43:21;12.03;;;9.07;;
16731;SDS011;8484;50.904;9.192;2024-02-26T14:45:47;11.17;;;8.37;;
16731;SDS011;8484;50.904;9.192;2024-02-26T14:48:14;16.53;;;13.97;;
16731;SDS011;8484;50.904;9.192;2024-02-26T14:50:41;5.93;;;4.70;;
16731;SDS011;8484;50.904;9.192;2024-02-26T14:53:08;5.63;;;4.97;;
16731;SDS011;8484;50.904;9.192;2024-02-26T14:55:36;7.13;;;5.70;;
16731;SDS011;8484;50.904;9.192;2024-02-26T14:58:03;7.70;;;5.70;;
16731;SDS011;8484;50.904;9.192;2024-02-26T15:00:30;8.80;;;7.90;;
16731;SDS011;8484;50.904;9.192;2024-02-26T15:02:59;6.07;;;4.90;;
16731;SDS011;8484;50.904;9.192;2024-02-26T15:05:25;5.70;;;4.93;;